Time;durP1;ratioP1;P1;durP2;ratioP2;P2;SDS_P1;SDS_P2;PMS_P1;PMS_P2;Temp;Humidity;BMP_temperature;BMP_pressure;BME280_temperature;BME280_humidity;BME280_pressure;Samples;Min_cycle;Max_cycle;Signal;HPM_P1;HPM_P2
2022/07/06 00:00:13;;;;;;;3.17;2.00;;;;;;;;;;5129922;27;20459;-74
2022/07/06 00:02:41;;;;;;;2.93;2.17;;;;;;;;;;5116322;28;20945;-75
2022/07/06 00:05:09;;;;;;;5.13;2.40;;;;;;;;;;5116142;28;20449;-75
2022/07/06 00:07:38;;;;;;;3.80;2.57;;;;;;;;;;5119779;27;20484;-75
2022/07/06 00:10:05;;;;;;;4.77;2.00;;;;;;;;;;5120704;27;20941;-75
2022/07/06 00:12:32;;;;;;;4.10;2.40;;;;;;;;;;5133831;27;20442;-74
2022/07/06 00:15:00;;;;;;;3.30;2.17;;;;;;;;;;5133547;27;21009;-75
2022/07/06 00:17:27;;;;;;;3.93;2.40;;;;;;;;;;5134342;27;20881;-75
2022/07/06 00:19:54;;;;;;;3.80;2.53;;;;;;;;;;5134735;27;20444;-75
2022/07/06 00:22:21;;;;;;;2.33;1.93;;;;;;;;;;5128912;27;20452;-74
2022/07/06 00:24:50;;;;;;;5.70;2.60;;;;;;;;;;5115805;28;20565;-75
2022/07/06 00:27:17;;;;;;;10.83;2.60;;;;;;;;;;5115864;28;20438;-75
2022/07/06 00:29:44;;;;;;;2.87;2.27;;;;;;;;;;5119721;27;20427;-74
2022/07/06 00:32:11;;;;;;;4.93;2.47;;;;;;;;;;5120599;27;20501;-75
2022/07/06 00:34:39;;;;;;;5.33;2.77;;;;;;;;;;5133343;27;20463;-75
2022/07/06 00:37:06;;;;;;;3.27;2.83;;;;;;;;;;5133385;27;20987;-74
2022/07/06 00:39:34;;;;;;;3.87;3.00;;;;;;;;;;5133841;27;20457;-74
2022/07/06 00:42:02;;;;;;;2.63;2.43;;;;;;;;;;5134506;27;20448;-75
2022/07/06 00:44:30;;;;;;;3.10;2.67;;;;;;;;;;5127369;27;20480;-74
2022/07/06 00:46:58;;;;;;;2.90;2.30;;;;;;;;;;5115229;28;20441;-75
2022/07/06 00:52:06;;;;;;;7.10;2.57;;;;;;;;;;5118415;27;22185;-74
2022/07/06 00:54:34;;;;;;;2.50;2.30;;;;;;;;;;5118221;27;20523;-75
2022/07/06 00:57:02;;;;;;;4.47;2.30;;;;;;;;;;5112224;28;20445;-75
2022/07/06 00:59:30;;;;;;;4.63;2.93;;;;;;;;;;5112156;28;20802;-74
2022/07/06 01:01:57;;;;;;;5.47;2.80;;;;;;;;;;5113270;28;20446;-74
2022/07/06 01:04:24;;;;;;;4.37;2.43;;;;;;;;;;5113296;28;20459;-74
2022/07/06 01:06:51;;;;;;;3.87;2.60;;;;;;;;;;5113196;28;20816;-74
2022/07/06 01:09:19;;;;;;;4.40;2.97;;;;;;;;;;5114920;28;20446;-75
2022/07/06 01:11:46;;;;;;;5.60;2.97;;;;;;;;;;5115268;27;20462;-75
2022/07/06 01:14:15;;;;;;;5.77;3.00;;;;;;;;;;5118687;27;20443;-74
2022/07/06 01:16:43;;;;;;;5.87;2.57;;;;;;;;;;5120448;27;20539;-75
2022/07/06 01:19:10;;;;;;;4.60;2.70;;;;;;;;;;5132509;27;20959;-74
2022/07/06 01:21:40;;;;;;;4.43;3.10;;;;;;;;;;5132365;27;20810;-74
2022/07/06 01:24:08;;;;;;;4.10;2.70;;;;;;;;;;5133399;27;20829;-75
2022/07/06 01:26:35;;;;;;;6.13;2.87;;;;;;;;;;5133142;27;20518;-74
2022/07/06 01:29:02;;;;;;;3.50;3.20;;;;;;;;;;5124208;27;20490;-73
2022/07/06 01:31:30;;;;;;;3.57;3.27;;;;;;;;;;5114561;28;20447;-75
2022/07/06 01:33:58;;;;;;;5.03;3.10;;;;;;;;;;5115088;27;20534;-75
2022/07/06 01:36:25;;;;;;;4.17;3.03;;;;;;;;;;5118089;27;20503;-74
2022/07/06 01:38:56;;;;;;;4.77;3.60;;;;;;;;;;5116557;27;20473;-74
2022/07/06 01:41:24;;;;;;;5.30;2.80;;;;;;;;;;5111917;28;20442;-75
2022/07/06 01:43:51;;;;;;;5.80;3.47;;;;;;;;;;5111476;28;20860;-75
2022/07/06 01:46:19;;;;;;;4.00;3.13;;;;;;;;;;5112250;28;20487;-74
2022/07/06 01:48:46;;;;;;;10.53;3.37;;;;;;;;;;5111485;28;20853;-75
2022/07/06 01:51:13;;;;;;;5.20;2.97;;;;;;;;;;5112403;28;20455;-75
2022/07/06 01:53:40;;;;;;;3.73;2.97;;;;;;;;;;5114290;28;20787;-74
2022/07/06 01:56:10;;;;;;;5.83;2.90;;;;;;;;;;5114163;28;21846;-74
2022/07/06 01:58:37;;;;;;;3.77;2.67;;;;;;;;;;5116801;27;20863;-74
2022/07/06 02:01:09;;;;;;;6.63;4.07;;;;;;;;;;5120634;27;20434;-74
2022/07/06 02:03:37;;;;;;;3.80;2.70;;;;;;;;;;5131223;27;20434;-74
2022/07/06 02:06:05;;;;;;;6.03;3.57;;;;;;;;;;5131581;27;20488;-74
2022/07/06 02:08:32;;;;;;;5.50;3.17;;;;;;;;;;5132391;27;20433;-75
2022/07/06 02:10:59;;;;;;;5.73;3.60;;;;;;;;;;5133143;27;20448;-74
2022/07/06 02:13:28;;;;;;;4.00;3.47;;;;;;;;;;5121552;27;20465;-74
2022/07/06 02:15:55;;;;;;;3.83;3.20;;;;;;;;;;5113994;28;20472;-75
2022/07/06 02:18:22;;;;;;;4.60;3.17;;;;;;;;;;5114754;28;20921;-75
2022/07/06 02:20:50;;;;;;;3.23;2.80;;;;;;;;;;5117661;27;20423;-76
2022/07/06 02:23:17;;;;;;;5.00;3.20;;;;;;;;;;5122501;28;20641;-77
2022/07/06 02:25:44;;;;;;;4.13;3.20;;;;;;;;;;5132248;27;20489;-75
2022/07/06 02:28:11;;;;;;;3.67;2.97;;;;;;;;;;5131738;27;20438;-75
2022/07/06 02:30:40;;;;;;;5.33;2.90;;;;;;;;;;5132363;27;20438;-76
2022/07/06 02:33:07;;;;;;;4.60;3.37;;;;;;;;;;5132779;27;20448;-75
2022/07/06 02:35:34;;;;;;;4.07;3.00;;;;;;;;;;5120759;27;20458;-75
2022/07/06 02:38:01;;;;;;;3.37;3.07;;;;;;;;;;5113882;28;20442;-75
2022/07/06 02:40:28;;;;;;;3.63;3.00;;;;;;;;;;5114547;28;20454;-75
2022/07/06 02:42:59;;;;;;;4.20;2.77;;;;;;;;;;5117458;28;20449;-75
2022/07/06 02:45:26;;;;;;;5.37;2.90;;;;;;;;;;5114583;28;20487;-75
2022/07/06 02:47:56;;;;;;;4.30;3.07;;;;;;;;;;5111303;28;20434;-77
2022/07/06 02:50:23;;;;;;;4.67;3.30;;;;;;;;;;5110922;28;20439;-76
2022/07/06 02:52:51;;;;;;;8.03;2.63;;;;;;;;;;5111358;28;20947;-76
2022/07/06 02:55:18;;;;;;;4.17;2.90;;;;;;;;;;5110734;28;20531;-76
2022/07/06 02:57:45;;;;;;;4.60;2.83;;;;;;;;;;5107438;28;20457;-75
2022/07/06 03:00:13;;;;;;;7.97;2.47;;;;;;;;;;5093198;28;20466;-75
2022/07/06 03:02:40;;;;;;;3.17;2.87;;;;;;;;;;5101377;28;20541;-76
2022/07/06 03:05:09;;;;;;;3.00;2.20;;;;;;;;;;5116200;28;20458;-75
2022/07/06 03:07:37;;;;;;;4.70;2.80;;;;;;;;;;5117987;27;20442;-77
2022/07/06 03:10:04;;;;;;;4.00;2.80;;;;;;;;;;5115014;28;20434;-75
2022/07/06 03:12:31;;;;;;;3.53;2.40;;;;;;;;;;5114418;28;20450;-76
2022/07/06 03:14:58;;;;;;;4.53;2.80;;;;;;;;;;5114868;28;20465;-75
2022/07/06 03:17:25;;;;;;;3.27;2.60;;;;;;;;;;5115637;28;20444;-76
2022/07/06 03:19:53;;;;;;;6.90;2.87;;;;;;;;;;5115766;28;20453;-76
2022/07/06 03:22:22;;;;;;;3.70;2.63;;;;;;;;;;5117206;28;20439;-76
2022/07/06 03:24:49;;;;;;;3.77;2.47;;;;;;;;;;5118370;27;20434;-76
2022/07/06 03:27:16;;;;;;;3.80;3.10;;;;;;;;;;5120789;27;21030;-77
2022/07/06 03:29:43;;;;;;;3.70;2.80;;;;;;;;;;5126537;27;20447;-76
2022/07/06 03:32:11;;;;;;;7.43;3.87;;;;;;;;;;5135321;27;20525;-75
2022/07/06 03:34:38;;;;;;;5.67;3.07;;;;;;;;;;5134544;27;20433;-75
2022/07/06 03:37:05;;;;;;;3.57;3.00;;;;;;;;;;5135256;27;20449;-76
2022/07/06 03:39:34;;;;;;;3.10;2.80;;;;;;;;;;5134264;27;20985;-75
2022/07/06 03:42:01;;;;;;;4.43;2.83;;;;;;;;;;5121968;27;20465;-75
2022/07/06 03:44:29;;;;;;;2.60;2.40;;;;;;;;;;5116869;28;20441;-76
2022/07/06 03:46:56;;;;;;;3.73;2.73;;;;;;;;;;5118111;27;20540;-76
2022/07/06 03:49:26;;;;;;;4.07;3.03;;;;;;;;;;5120756;27;20429;-75
2022/07/06 03:51:54;;;;;;;5.10;2.70;;;;;;;;;;5117421;27;20439;-75
2022/07/06 03:54:21;;;;;;;7.03;2.93;;;;;;;;;;5114281;28;20867;-75
2022/07/06 03:56:49;;;;;;;2.57;2.37;;;;;;;;;;5113481;28;20817;-75
2022/07/06 03:59:17;;;;;;;3.17;2.80;;;;;;;;;;5114360;28;20878;-75
2022/07/06 04:01:44;;;;;;;4.43;2.30;;;;;;;;;;5114785;28;20441;-76
2022/07/06 04:04:11;;;;;;;5.60;2.60;;;;;;;;;;5115108;28;20442;-75
2022/07/06 04:06:39;;;;;;;3.23;2.80;;;;;;;;;;5116135;28;20478;-75
2022/07/06 04:09:06;;;;;;;3.30;2.33;;;;;;;;;;5117884;27;20780;-75
2022/07/06 04:11:34;;;;;;;6.53;2.80;;;;;;;;;;5120098;27;20517;-77
2022/07/06 04:14:02;;;;;;;3.30;2.40;;;;;;;;;;5116803;27;20441;-75
2022/07/06 04:16:29;;;;;;;3.33;2.57;;;;;;;;;;5113825;28;20461;-76
2022/07/06 04:18:56;;;;;;;4.30;2.50;;;;;;;;;;5112211;28;20927;-76
2022/07/06 04:21:24;;;;;;;5.87;2.80;;;;;;;;;;5113776;28;20439;-77
2022/07/06 04:23:51;;;;;;;5.33;2.60;;;;;;;;;;5114220;28;20529;-75
2022/07/06 04:26:18;;;;;;;4.00;2.57;;;;;;;;;;5114617;28;20569;-75
2022/07/06 04:28:45;;;;;;;2.90;2.30;;;;;;;;;;5115924;28;20530;-74
2022/07/06 04:31:15;;;;;;;2.93;2.47;;;;;;;;;;5117336;27;20425;-74
2022/07/06 04:33:42;;;;;;;3.50;2.87;;;;;;;;;;5119480;27;20430;-74
2022/07/06 04:36:10;;;;;;;5.33;2.90;;;;;;;;;;5126525;27;20449;-75
2022/07/06 04:38:37;;;;;;;5.67;3.00;;;;;;;;;;5134098;27;20464;-76
2022/07/06 04:41:04;;;;;;;3.83;2.80;;;;;;;;;;5133281;27;20957;-75
2022/07/06 04:43:31;;;;;;;3.07;2.30;;;;;;;;;;5134029;27;20442;-77
2022/07/06 04:46:00;;;;;;;7.70;3.40;;;;;;;;;;5134187;27;20568;-77
2022/07/06 04:48:29;;;;;;;3.10;2.60;;;;;;;;;;5119108;27;20931;-76
2022/07/06 04:50:56;;;;;;;3.43;2.47;;;;;;;;;;5115253;28;20441;-75
2022/07/06 04:53:23;;;;;;;3.90;2.90;;;;;;;;;;5117510;27;20433;-75
2022/07/06 04:55:50;;;;;;;4.57;3.30;;;;;;;;;;5119102;27;20450;-76
2022/07/06 04:58:18;;;;;;;4.27;2.63;;;;;;;;;;5126408;27;20439;-79
2022/07/06 05:00:45;;;;;;;5.50;3.10;;;;;;;;;;5133481;27;20539;-75
2022/07/06 05:03:13;;;;;;;3.77;2.87;;;;;;;;;;5132789;27;20432;-78
2022/07/06 05:05:41;;;;;;;3.87;2.60;;;;;;;;;;5133592;27;20468;-75
2022/07/06 05:08:08;;;;;;;4.60;2.70;;;;;;;;;;5134149;27;20450;-75
2022/07/06 05:10:36;;;;;;;10.50;2.80;;;;;;;;;;5118453;27;20541;-78
2022/07/06 05:13:03;;;;;;;3.20;2.90;;;;;;;;;;5114912;28;20506;-77
2022/07/06 05:15:30;;;;;;;3.53;2.70;;;;;;;;;;5116661;27;20801;-78
2022/07/06 05:17:57;;;;;;;3.00;2.33;;;;;;;;;;5118568;27;20500;-77
2022/07/06 05:20:24;;;;;;;4.73;3.23;;;;;;;;;;5115141;27;20434;-77
2022/07/06 05:22:53;;;;;;;6.43;3.20;;;;;;;;;;5112776;28;20431;-75
2022/07/06 05:25:21;;;;;;;3.30;2.53;;;;;;;;;;5111855;28;20908;-75
2022/07/06 05:27:48;;;;;;;6.10;2.80;;;;;;;;;;5112500;28;20570;-75
2022/07/06 05:30:16;;;;;;;4.80;2.67;;;;;;;;;;5112697;28;20414;-74
2022/07/06 05:32:43;;;;;;;3.27;2.53;;;;;;;;;;5113431;28;20945;-75
2022/07/06 05:35:11;;;;;;;3.47;2.63;;;;;;;;;;5114550;28;20863;-74
2022/07/06 05:37:38;;;;;;;3.17;2.87;;;;;;;;;;5116199;27;20443;-75
2022/07/06 05:40:07;;;;;;;5.07;2.37;;;;;;;;;;5118040;27;20439;-75
2022/07/06 05:42:34;;;;;;;6.23;2.97;;;;;;;;;;5125619;27;20436;-75
2022/07/06 05:45:03;;;;;;;4.80;1.97;;;;;;;;;;5132827;27;20434;-75
2022/07/06 05:50:14;;;;;;;4.13;2.00;;;;;;;;;;5132501;27;20485;-74
2022/07/06 05:52:42;;;;;;;3.57;2.70;;;;;;;;;;5132838;27;20475;-75
2022/07/06 05:55:11;;;;;;;5.67;2.50;;;;;;;;;;5115413;27;21019;-75
2022/07/06 05:57:38;;;;;;;3.00;2.23;;;;;;;;;;5114291;28;20507;-75
2022/07/06 06:00:06;;;;;;;6.43;1.97;;;;;;;;;;5116213;27;20477;-75
2022/07/06 06:02:41;;;;;;;4.67;2.33;;;;;;;;;;5116793;27;20419;-75
2022/07/06 06:05:09;;;;;;;10.50;2.10;;;;;;;;;;5113322;27;20480;-75
2022/07/06 06:07:36;;;;;;;6.43;1.90;;;;;;;;;;5111661;28;20525;-79
2022/07/06 06:10:05;;;;;;;3.80;2.03;;;;;;;;;;5111157;28;21144;-76
2022/07/06 06:12:33;;;;;;;3.70;1.93;;;;;;;;;;5112158;28;20417;-77
2022/07/06 06:15:01;;;;;;;5.47;2.30;;;;;;;;;;5112052;28;20463;-76
2022/07/06 06:17:28;;;;;;;6.93;2.23;;;;;;;;;;5113157;28;20456;-76
2022/07/06 06:19:55;;;;;;;2.63;1.70;;;;;;;;;;5114040;28;20442;-76
2022/07/06 06:22:23;;;;;;;6.57;1.80;;;;;;;;;;5115798;28;20515;-76
2022/07/06 06:24:50;;;;;;;4.37;2.17;;;;;;;;;;5117948;28;20466;-75
2022/07/06 06:27:17;;;;;;;4.70;2.10;;;;;;;;;;5126077;27;20479;-76
2022/07/06 06:29:46;;;;;;;3.77;1.73;;;;;;;;;;5132133;27;20952;-75
2022/07/06 06:32:13;;;;;;;3.40;1.90;;;;;;;;;;5131553;27;20979;-76
2022/07/06 06:34:41;;;;;;;2.27;1.40;;;;;;;;;;5132756;27;20444;-75
2022/07/06 06:37:08;;;;;;;4.93;1.93;;;;;;;;;;5132458;27;20429;-75
2022/07/06 06:39:36;;;;;;;4.03;1.93;;;;;;;;;;5115871;27;20477;-75
2022/07/06 06:42:04;;;;;;;2.13;1.33;;;;;;;;;;5116614;28;20435;-74
2022/07/06 06:44:32;;;;;;;4.30;1.60;;;;;;;;;;5119663;27;20525;-75
2022/07/06 06:47:00;;;;;;;5.33;1.70;;;;;;;;;;5121744;27;20476;-76
2022/07/06 06:49:27;;;;;;;4.67;1.80;;;;;;;;;;5130451;27;20789;-75
2022/07/06 06:51:55;;;;;;;3.63;2.20;;;;;;;;;;5136087;27;20524;-74
2022/07/06 06:54:22;;;;;;;3.30;1.43;;;;;;;;;;5135346;27;20451;-75
2022/07/06 06:56:49;;;;;;;2.70;1.40;;;;;;;;;;5136139;27;20465;-75
2022/07/06 06:59:16;;;;;;;2.03;1.50;;;;;;;;;;5136402;27;20442;-76
2022/07/06 07:01:43;;;;;;;3.60;1.77;;;;;;;;;;5119384;27;20525;-75
2022/07/06 07:04:12;;;;;;;4.20;1.67;;;;;;;;;;5117301;28;20438;-75
2022/07/06 07:06:39;;;;;;;2.83;1.40;;;;;;;;;;5119308;27;20483;-76
2022/07/06 07:09:06;;;;;;;2.40;1.53;;;;;;;;;;5121323;27;20510;-75
2022/07/06 07:11:34;;;;;;;5.20;2.10;;;;;;;;;;5129299;27;20461;-75
2022/07/06 07:14:01;;;;;;;2.77;1.80;;;;;;;;;;5135738;27;20547;-75
2022/07/06 07:16:29;;;;;;;3.50;2.10;;;;;;;;;;5134792;27;20795;-74
2022/07/06 07:18:56;;;;;;;5.20;2.10;;;;;;;;;;5135641;27;20484;-75
2022/07/06 07:21:25;;;;;;;3.70;1.77;;;;;;;;;;5136171;27;20438;-74
2022/07/06 07:23:52;;;;;;;3.57;1.77;;;;;;;;;;5119505;27;20472;-74
2022/07/06 07:26:19;;;;;;;4.80;2.10;;;;;;;;;;5116930;28;20458;-77
2022/07/06 07:28:46;;;;;;;2.97;1.80;;;;;;;;;;5118773;27;20438;-77
2022/07/06 07:31:14;;;;;;;3.83;2.40;;;;;;;;;;5120507;27;20426;-77
2022/07/06 07:33:41;;;;;;;4.73;2.23;;;;;;;;;;5117091;27;20461;-77
2022/07/06 07:36:08;;;;;;;4.87;2.53;;;;;;;;;;5114674;28;20807;-74
2022/07/06 07:38:37;;;;;;;4.57;2.53;;;;;;;;;;5113758;28;20889;-74
2022/07/06 07:41:05;;;;;;;6.00;2.40;;;;;;;;;;5114657;28;20434;-74
2022/07/06 07:43:33;;;;;;;6.03;2.67;;;;;;;;;;5114969;28;20965;-74
2022/07/06 07:46:00;;;;;;;2.23;1.90;;;;;;;;;;5115430;28;20509;-74
2022/07/06 07:48:27;;;;;;;3.07;2.07;;;;;;;;;;5116700;28;20852;-74
2022/07/06 07:50:55;;;;;;;8.43;2.50;;;;;;;;;;5118403;27;20932;-74
2022/07/06 07:53:22;;;;;;;3.73;2.23;;;;;;;;;;5119056;27;21012;-74
2022/07/06 07:55:50;;;;;;;2.73;1.77;;;;;;;;;;5117144;27;20446;-74
2022/07/06 07:58:17;;;;;;;3.37;1.87;;;;;;;;;;5114031;28;20536;-73
2022/07/06 08:00:45;;;;;;;4.27;1.70;;;;;;;;;;5113571;28;20438;-74
2022/07/06 08:03:12;;;;;;;5.13;2.00;;;;;;;;;;5114271;28;20442;-74
2022/07/06 08:05:40;;;;;;;6.00;1.87;;;;;;;;;;5114753;28;20569;-73
2022/07/06 08:08:07;;;;;;;2.80;1.10;;;;;;;;;;5115095;28;20486;-74
2022/07/06 08:10:34;;;;;;;2.73;1.53;;;;;;;;;;5116133;28;20442;-74
2022/07/06 08:13:03;;;;;;;5.10;1.73;;;;;;;;;;5117388;27;20437;-74
2022/07/06 08:15:31;;;;;;;2.30;1.37;;;;;;;;;;5119985;27;20807;-74
2022/07/06 08:17:58;;;;;;;1.73;1.30;;;;;;;;;;5116934;27;20458;-74
2022/07/06 08:20:25;;;;;;;3.60;1.90;;;;;;;;;;5113803;28;20672;-73
2022/07/06 08:22:53;;;;;;;1.60;1.03;;;;;;;;;;5113148;28;20443;-74
2022/07/06 08:25:20;;;;;;;2.10;1.20;;;;;;;;;;5112448;28;20547;-73
2022/07/06 08:27:47;;;;;;;1.90;1.33;;;;;;;;;;5114431;28;20516;-74
2022/07/06 08:30:16;;;;;;;2.87;1.60;;;;;;;;;;5114601;28;20434;-74
2022/07/06 08:32:43;;;;;;;2.73;1.20;;;;;;;;;;5115786;28;20537;-73
2022/07/06 08:35:11;;;;;;;2.47;1.50;;;;;;;;;;5115894;27;20807;-73
2022/07/06 08:37:38;;;;;;;3.80;1.60;;;;;;;;;;5119448;27;20434;-73
2022/07/06 08:40:07;;;;;;;2.47;1.63;;;;;;;;;;5125561;27;20811;-73
2022/07/06 08:42:36;;;;;;;2.20;1.37;;;;;;;;;;5132747;27;20437;-74
2022/07/06 08:45:04;;;;;;;4.47;1.50;;;;;;;;;;5133203;27;20465;-73
2022/07/06 08:47:32;;;;;;;2.10;1.50;;;;;;;;;;5133854;27;20465;-73
2022/07/06 08:50:00;;;;;;;3.03;1.63;;;;;;;;;;5134452;27;20536;-73
2022/07/06 08:52:27;;;;;;;1.97;1.10;;;;;;;;;;5119570;27;20466;-72
2022/07/06 08:54:54;;;;;;;3.23;1.30;;;;;;;;;;5115452;28;20542;-73
2022/07/06 08:57:21;;;;;;;2.93;1.30;;;;;;;;;;5116988;27;20435;-73
2022/07/06 08:59:48;;;;;;;3.67;1.20;;;;;;;;;;5118857;27;20445;-73
2022/07/06 09:02:16;;;;;;;3.03;1.40;;;;;;;;;;5116043;27;20435;-73
2022/07/06 09:04:45;;;;;;;6.23;1.30;;;;;;;;;;5112285;28;20878;-73
2022/07/06 09:07:13;;;;;;;2.53;1.47;;;;;;;;;;5111997;28;20920;-74
2022/07/06 09:09:41;;;;;;;5.27;1.30;;;;;;;;;;5113054;28;20442;-73
2022/07/06 09:12:13;;;;;;;2.03;1.17;;;;;;;;;;5113318;28;20536;-74
2022/07/06 09:14:40;;;;;;;1.40;1.00;;;;;;;;;;5113696;28;20799;-74
2022/07/06 09:17:08;;;;;;;3.00;1.30;;;;;;;;;;5114924;28;20793;-74
2022/07/06 09:19:36;;;;;;;3.93;1.33;;;;;;;;;;5114894;27;20524;-74
2022/07/06 09:22:05;;;;;;;4.60;1.30;;;;;;;;;;5117181;27;20434;-74
2022/07/06 09:24:32;;;;;;;4.90;1.50;;;;;;;;;;5125585;27;20660;-73
2022/07/06 09:27:00;;;;;;;1.63;1.10;;;;;;;;;;5133116;27;20480;-75
2022/07/06 09:29:29;;;;;;;2.60;1.37;;;;;;;;;;5132494;27;20434;-74
2022/07/06 09:31:57;;;;;;;2.90;1.30;;;;;;;;;;5132953;27;20442;-74
2022/07/06 09:34:24;;;;;;;2.47;1.13;;;;;;;;;;5132432;27;20429;-76
2022/07/06 09:36:52;;;;;;;1.70;1.50;;;;;;;;;;5118328;27;20507;-74
2022/07/06 09:39:22;;;;;;;2.10;1.30;;;;;;;;;;5117039;27;20468;-74
2022/07/06 09:41:51;;;;;;;3.43;1.40;;;;;;;;;;5118473;27;20471;-74
2022/07/06 09:44:20;;;;;;;5.63;1.37;;;;;;;;;;5112444;27;20445;-74
2022/07/06 09:46:48;;;;;;;4.10;1.70;;;;;;;;;;5111082;28;20554;-74
2022/07/06 09:49:18;;;;;;;2.80;1.13;;;;;;;;;;5111098;28;20507;-74
2022/07/06 09:51:46;;;;;;;5.03;1.50;;;;;;;;;;5112748;28;20867;-74
2022/07/06 09:54:13;;;;;;;3.20;1.40;;;;;;;;;;5111694;28;20475;-74
2022/07/06 09:56:42;;;;;;;4.00;1.50;;;;;;;;;;5114124;28;20819;-74
2022/07/06 09:59:10;;;;;;;2.70;1.23;;;;;;;;;;5113004;28;20923;-74
2022/07/06 10:01:37;;;;;;;1.60;1.20;;;;;;;;;;5117466;27;20434;-74
2022/07/06 10:04:04;;;;;;;1.57;1.30;;;;;;;;;;5118232;27;20436;-74
2022/07/06 10:06:32;;;;;;;1.43;1.33;;;;;;;;;;5129781;27;20464;-73
2022/07/06 10:08:59;;;;;;;1.80;1.30;;;;;;;;;;5131622;27;20483;-74
2022/07/06 10:11:27;;;;;;;1.57;1.20;;;;;;;;;;5132978;27;20437;-74
2022/07/06 10:13:57;;;;;;;2.87;1.53;;;;;;;;;;5132873;27;20451;-74
2022/07/06 10:16:24;;;;;;;1.60;1.13;;;;;;;;;;5129528;27;20458;-78
2022/07/06 10:18:53;;;;;;;3.77;1.80;;;;;;;;;;5112968;28;20446;-76
2022/07/06 10:21:20;;;;;;;2.33;1.50;;;;;;;;;;5114029;28;20529;-78
2022/07/06 10:23:48;;;;;;;2.30;1.13;;;;;;;;;;5116465;28;20434;-77
2022/07/06 10:26:16;;;;;;;2.53;2.03;;;;;;;;;;5117927;27;20447;-73
2022/07/06 10:28:44;;;;;;;3.93;1.70;;;;;;;;;;5111367;28;20501;-74
2022/07/06 10:31:13;;;;;;;1.63;1.53;;;;;;;;;;5110314;28;20435;-74
2022/07/06 10:33:40;;;;;;;3.50;1.40;;;;;;;;;;5111261;28;20480;-73
2022/07/06 10:36:08;;;;;;;2.43;1.50;;;;;;;;;;5112136;28;20558;-73
2022/07/06 10:38:36;;;;;;;12.67;4.30;;;;;;;;;;5109430;28;20572;-72
2022/07/06 10:41:03;;;;;;;8.00;2.73;;;;;;;;;;5112414;28;20439;-73
2022/07/06 10:43:34;;;;;;;7.63;1.87;;;;;;;;;;5113779;28;20434;-73
2022/07/06 10:46:07;;;;;;;6.40;3.00;;;;;;;;;;5114950;28;20450;-74
2022/07/06 10:48:39;;;;;;;8.77;3.10;;;;;;;;;;5116357;28;20561;-74
2022/07/06 10:51:06;;;;;;;2.50;1.67;;;;;;;;;;5112058;28;20452;-73
2022/07/06 10:53:34;;;;;;;5.23;2.27;;;;;;;;;;5110572;28;20927;-74
2022/07/06 10:56:03;;;;;;;5.10;1.90;;;;;;;;;;5111699;28;20843;-73
2022/07/06 10:58:36;;;;;;;2.63;1.60;;;;;;;;;;5111986;28;20800;-72
2022/07/06 11:01:05;;;;;;;1.60;1.50;;;;;;;;;;5111459;28;20783;-73
2022/07/06 11:03:34;;;;;;;1.60;1.37;;;;;;;;;;5113438;28;20438;-73
2022/07/06 11:06:04;;;;;;;2.90;1.70;;;;;;;;;;5113539;28;20497;-73
2022/07/06 11:08:46;;;;;;;2.07;1.40;;;;;;;;;;5115165;28;20485;-73
2022/07/06 11:11:14;;;;;;;2.73;1.67;;;;;;;;;;5116219;27;20440;-74
2022/07/06 11:13:45;;;;;;;3.17;1.90;;;;;;;;;;5111192;28;20439;-73
2022/07/06 11:16:12;;;;;;;3.10;1.80;;;;;;;;;;5110165;28;20885;-73
2022/07/06 11:18:41;;;;;;;2.40;1.50;;;;;;;;;;5111345;28;20443;-73
2022/07/06 11:21:17;;;;;;;3.77;1.60;;;;;;;;;;5111837;28;20447;-73
2022/07/06 11:23:46;;;;;;;2.40;1.37;;;;;;;;;;5111239;28;20450;-73
2022/07/06 11:26:14;;;;;;;2.07;1.50;;;;;;;;;;5113278;28;20544;-73
2022/07/06 11:28:42;;;;;;;3.07;1.83;;;;;;;;;;5116358;28;20478;-73
2022/07/06 11:31:09;;;;;;;1.60;1.50;;;;;;;;;;5119383;27;20451;-73
2022/07/06 11:33:36;;;;;;;3.43;1.40;;;;;;;;;;5120874;27;20437;-73
2022/07/06 11:36:18;;;;;;;3.63;1.30;;;;;;;;;;5114339;28;20545;-73
2022/07/06 11:38:47;;;;;;;3.80;1.60;;;;;;;;;;5112544;28;21001;-73
2022/07/06 11:41:15;;;;;;;2.67;1.50;;;;;;;;;;5114408;28;20430;-74
2022/07/06 11:43:45;;;;;;;1.93;1.40;;;;;;;;;;5114025;28;20844;-74
2022/07/06 11:46:21;;;;;;;3.07;1.50;;;;;;;;;;5114798;28;20478;-74
2022/07/06 11:48:48;;;;;;;1.87;1.20;;;;;;;;;;5116635;28;20478;-74
2022/07/06 11:51:16;;;;;;;2.97;1.33;;;;;;;;;;5116564;27;20805;-74
2022/07/06 11:53:46;;;;;;;1.30;1.10;;;;;;;;;;5119985;27;20939;-74
2022/07/06 11:56:14;;;;;;;4.37;1.40;;;;;;;;;;5120075;27;20453;-74
2022/07/06 11:58:43;;;;;;;1.70;1.30;;;;;;;;;;5112339;28;20470;-74
2022/07/06 12:01:11;;;;;;;2.37;1.60;;;;;;;;;;5113423;28;20492;-74
2022/07/06 12:03:39;;;;;;;1.50;1.20;;;;;;;;;;5114334;28;20430;-74
2022/07/06 12:06:07;;;;;;;4.73;1.97;;;;;;;;;;5114381;28;20462;-74
2022/07/06 12:08:42;;;;;;;2.30;1.63;;;;;;;;;;5114411;28;20572;-74
2022/07/06 12:11:11;;;;;;;4.53;1.50;;;;;;;;;;5116077;28;20931;-74
2022/07/06 12:13:40;;;;;;;3.43;1.40;;;;;;;;;;5116113;27;20541;-75
2022/07/06 12:16:11;;;;;;;5.73;1.40;;;;;;;;;;5119631;27;20962;-74
2022/07/06 12:18:38;;;;;;;3.77;1.50;;;;;;;;;;5119458;27;20473;-74
2022/07/06 12:21:06;;;;;;;4.17;1.30;;;;;;;;;;5111915;28;20852;-74
2022/07/06 12:23:40;;;;;;;1.47;1.17;;;;;;;;;;5113110;28;20597;-74
2022/07/06 12:26:07;;;;;;;3.33;1.50;;;;;;;;;;5113938;28;20458;-74
2022/07/06 12:28:35;;;;;;;3.20;1.70;;;;;;;;;;5113930;28;20474;-74
2022/07/06 12:31:02;;;;;;;2.50;1.43;;;;;;;;;;5114142;28;20451;-74
2022/07/06 12:33:30;;;;;;;3.13;1.43;;;;;;;;;;5115807;28;20445;-74
2022/07/06 12:35:57;;;;;;;2.97;1.30;;;;;;;;;;5115778;28;20809;-75
2022/07/06 12:38:25;;;;;;;2.07;1.40;;;;;;;;;;5118899;27;20438;-73
2022/07/06 12:40:52;;;;;;;2.70;1.50;;;;;;;;;;5120443;27;20516;-74
2022/07/06 12:43:34;;;;;;;1.30;1.20;;;;;;;;;;5133267;27;20869;-75
2022/07/06 12:46:22;;;;;;;3.00;1.53;;;;;;;;;;5131904;27;20458;-75
2022/07/06 12:48:53;;;;;;;2.70;1.40;;;;;;;;;;5132911;27;20480;-75
2022/07/06 12:51:20;;;;;;;3.30;1.90;;;;;;;;;;5134469;27;20450;-75
2022/07/06 12:53:47;;;;;;;4.33;1.53;;;;;;;;;;5122610;27;20478;-75
2022/07/06 12:56:15;;;;;;;1.90;1.60;;;;;;;;;;5115165;28;20461;-74
2022/07/06 12:58:55;;;;;;;3.43;1.60;;;;;;;;;;5115855;27;20437;-75
2022/07/06 13:01:23;;;;;;;5.60;1.80;;;;;;;;;;5119039;27;20428;-74
2022/07/06 13:03:55;;;;;;;3.20;1.83;;;;;;;;;;5116730;27;20427;-74
2022/07/06 13:06:37;;;;;;;2.10;1.40;;;;;;;;;;5111570;28;20454;-74
2022/07/06 13:09:07;;;;;;;4.13;2.07;;;;;;;;;;5111166;28;20485;-75
2022/07/06 13:11:35;;;;;;;2.20;1.27;;;;;;;;;;5112937;28;20441;-74
2022/07/06 13:14:02;;;;;;;4.53;1.60;;;;;;;;;;5113662;28;20434;-77
2022/07/06 13:16:34;;;;;;;5.47;1.83;;;;;;;;;;5113595;28;21003;-79
2022/07/06 13:19:01;;;;;;;4.63;1.70;;;;;;;;;;5114817;28;20442;-75
2022/07/06 13:21:28;;;;;;;2.57;1.70;;;;;;;;;;5115913;27;20437;-74
2022/07/06 13:23:55;;;;;;;2.10;1.20;;;;;;;;;;5118918;27;20418;-75
2022/07/06 13:26:23;;;;;;;4.57;1.90;;;;;;;;;;5115966;27;20446;-75
2022/07/06 13:28:50;;;;;;;2.90;1.40;;;;;;;;;;5112367;28;20573;-74
2022/07/06 13:31:17;;;;;;;3.30;1.37;;;;;;;;;;5111920;28;20529;-75
2022/07/06 13:33:45;;;;;;;2.70;1.40;;;;;;;;;;5112293;28;20438;-75
2022/07/06 13:36:13;;;;;;;2.03;1.40;;;;;;;;;;5113076;28;20611;-75
2022/07/06 13:38:40;;;;;;;3.27;1.63;;;;;;;;;;5112922;28;20474;-74
2022/07/06 13:41:07;;;;;;;3.67;1.27;;;;;;;;;;5114594;28;20434;-75
2022/07/06 13:43:36;;;;;;;1.57;1.27;;;;;;;;;;5115189;27;20868;-75
2022/07/06 13:46:04;;;;;;;2.33;1.60;;;;;;;;;;5118115;27;21013;-74
2022/07/06 13:48:31;;;;;;;2.53;1.20;;;;;;;;;;5115835;27;20437;-75
2022/07/06 13:51:00;;;;;;;4.73;2.23;;;;;;;;;;5112156;28;20447;-74
2022/07/06 13:53:27;;;;;;;3.20;1.37;;;;;;;;;;5111572;28;20530;-74
2022/07/06 13:55:55;;;;;;;3.90;1.70;;;;;;;;;;5112077;28;20466;-74
2022/07/06 13:58:22;;;;;;;3.83;1.40;;;;;;;;;;5112643;28;20438;-74
2022/07/06 14:00:49;;;;;;;3.00;1.20;;;;;;;;;;5112544;28;20481;-74
2022/07/06 14:03:16;;;;;;;2.10;1.20;;;;;;;;;;5114534;28;20528;-74
2022/07/06 14:05:44;;;;;;;4.43;1.37;;;;;;;;;;5115155;27;20537;-74
2022/07/06 14:08:13;;;;;;;3.10;1.30;;;;;;;;;;5117791;27;20949;-74
2022/07/06 14:10:40;;;;;;;4.43;1.30;;;;;;;;;;5115515;27;20481;-74
2022/07/06 14:13:07;;;;;;;1.43;1.33;;;;;;;;;;5111666;28;20442;-74
2022/07/06 14:15:35;;;;;;;4.37;1.53;;;;;;;;;;5111016;28;20974;-74
2022/07/06 14:18:02;;;;;;;4.07;2.20;;;;;;;;;;5111827;28;20526;-73
2022/07/06 14:20:29;;;;;;;2.80;1.70;;;;;;;;;;5112439;28;20442;-74
2022/07/06 14:22:56;;;;;;;1.80;1.30;;;;;;;;;;5112242;28;20447;-73
2022/07/06 14:25:25;;;;;;;2.70;1.43;;;;;;;;;;5114265;28;20545;-73
2022/07/06 14:27:52;;;;;;;2.67;1.60;;;;;;;;;;5114775;28;20445;-74
2022/07/06 14:30:19;;;;;;;2.33;1.50;;;;;;;;;;5117760;27;20469;-74
2022/07/06 14:32:46;;;;;;;2.77;1.27;;;;;;;;;;5122473;27;20939;-74
2022/07/06 14:35:14;;;;;;;3.10;1.20;;;;;;;;;;5132441;27;20453;-74
2022/07/06 14:37:41;;;;;;;4.87;1.90;;;;;;;;;;5131551;27;20441;-74
2022/07/06 14:40:09;;;;;;;5.27;1.87;;;;;;;;;;5132048;27;20874;-74
2022/07/06 14:42:37;;;;;;;2.93;1.40;;;;;;;;;;5132558;27;20611;-74
2022/07/06 14:45:04;;;;;;;2.00;1.53;;;;;;;;;;5120376;27;20488;-74
2022/07/06 14:47:32;;;;;;;1.60;1.50;;;;;;;;;;5113770;28;20550;-74
2022/07/06 14:49:59;;;;;;;2.37;1.40;;;;;;;;;;5114801;28;20483;-74
2022/07/06 14:52:26;;;;;;;2.47;2.10;;;;;;;;;;5117190;28;20435;-73